Time,TemperatureF,DewpointF,PressureIn,WindDirection,WindDirectionDegrees,WindSpeedMPH,WindSpeedGustMPH,Humidity,HourlyPrecipIn,Conditions,Clouds,dailyrainin,SoftwareType,DateUTC
2013-01-11 00:00:00,37.1,32.1,30.10,North,0,0.0,0.0,82,0.00,,CLR,0.00,VWS V14.00,2013-01-11 08:00:00,
2013-01-11 00:03:00,38.4,32.8,30.10,North,0,0.0,0.0,80,0.00,,CLR,0.00,VWS V14.00,2013-01-11 08:03:00,
2013-01-11 00:08:00,38.2,32.6,30.10,North,0,0.0,0.0,80,0.00,,CLR,0.00,VWS V14.00,2013-01-11 08:08:00,
2013-01-11 00:13:00,37.9,32.3,30.10,North,0,0.0,0.0,80,0.00,,CLR,0.00,VWS V14.00,2013-01-11 08:13:00,
2013-01-11 00:18:00,37.9,32.3,30.10,North,0,0.0,0.0,80,0.00,,CLR,0.00,VWS V14.00,2013-01-11 08:18:00,
2013-01-11 00:23:00,37.7,32.1,30.10,North,0,0.0,0.0,80,0.00,,CLR,0.00,VWS V14.00,2013-01-11 08:23:00,
2013-01-11 00:28:00,37.9,32.3,30.10,North,0,0.0,0.0,80,0.00,,CLR,0.00,VWS V14.00,2013-01-11 08:28:00,
2013-01-11 00:30:00,37.2,32.2,30.11,North,0,0.0,0.0,82,0.00,,CLR,0.00,VWS V14.00,2013-01-11 08:30:00,
2013-01-11 00:33:00,37.8,32.2,30.11,North,0,0.0,0.0,80,0.00,,CLR,0.00,VWS V14.00,2013-01-11 08:33:00,
2013-01-11 00:38:00,37.6,32.3,30.10,North,0,0.0,0.0,81,0.00,,CLR,0.00,VWS V14.00,2013-01-11 08:38:00,
2013-01-11 00:43:00,37.6,32.3,30.10,North,0,0.0,0.0,81,0.00,,CLR,0.00,VWS V14.00,2013-01-11 08:43:00,
2013-01-11 00:48:00,37.4,32.1,30.11,North,0,0.0,0.0,81,0.00,,CLR,0.00,VWS V14.00,2013-01-11 08:48:00,
2013-01-11 00:53:00,37.6,32.3,30.10,North,0,0.0,0.0,81,0.00,,CLR,0.00,VWS V14.00,2013-01-11 08:53:00,
2013-01-11 00:58:00,37.4,32.4,30.10,North,0,0.0,0.0,82,0.00,,CLR,0.00,VWS V14.00,2013-01-11 08:58:00,
2013-01-11 01:00:00,36.7,32.0,30.11,North,0,0.0,0.0,83,0.00,,CLR,0.00,VWS V14.00,2013-01-11 09:00:00,
2013-01-11 01:03:00,37.0,31.7,30.10,North,0,0.0,0.0,81,0.00,,CLR,0.00,VWS V14.00,2013-01-11 09:03:00,
2013-01-11 01:08:00,37.3,32.3,30.10,North,0,0.0,0.0,82,0.00,,CLR,0.00,VWS V14.00,2013-01-11 09:08:00,
2013-01-11 01:13:00,37.0,32.0,30.11,North,0,0.0,0.0,82,0.00,,CLR,0.00,VWS V14.00,2013-01-11 09:13:00,
2013-01-11 01:18:00,37.2,32.2,30.10,North,0,0.0,0.0,82,0.00,,CLR,0.00,VWS V14.00,2013-01-11 09:18:00,
2013-01-11 01:23:00,37.1,32.1,30.10,North,0,0.0,0.0,82,0.00,,CLR,0.00,VWS V14.00,2013-01-11 09:23:00,
2013-01-11 01:28:00,37.1,32.1,30.10,North,0,0.0,0.0,82,0.00,,CLR,0.00,VWS V14.00,2013-01-11 09:28:00,
2013-01-11 01:30:00,36.9,31.6,30.11,SSW,203,0.0,3.0,81,0.00,,CLR,0.00,VWS V14.00,2013-01-11 09:30:00,
2013-01-11 01:33:00,37.0,31.7,30.10,North,0,0.0,0.0,81,0.00,,CLR,0.00,VWS V14.00,2013-01-11 09:33:00,
2013-01-11 01:38:00,36.7,32.0,30.10,North,0,0.0,0.0,83,0.00,,CLR,0.00,VWS V14.00,2013-01-11 09:38:00,
2013-01-11 01:43:00,36.6,31.6,30.10,North,0,0.0,0.0,82,0.00,,CLR,0.00,VWS V14.00,2013-01-11 09:43:00,
2013-01-11 01:48:00,36.8,31.8,30.10,North,0,0.0,0.0,82,0.00,,CLR,0.00,VWS V14.00,2013-01-11 09:48:00,
2013-01-11 01:53:00,36.6,31.9,30.10,North,0,0.0,0.0,83,0.00,,CLR,0.00,VWS V14.00,2013-01-11 09:53:00,
2013-01-11 01:58:00,36.7,31.7,30.10,North,0,0.0,0.0,82,0.00,,CLR,0.00,VWS V14.00,2013-01-11 09:58:00,
2013-01-11 02:00:00,36.4,31.7,30.11,SSW,202,0.0,0.0,83,0.00,,CLR,0.00,VWS V14.00,2013-01-11 10:00:00,
2013-01-11 02:03:00,36.7,31.7,30.11,North,0,0.0,0.0,82,0.00,,CLR,0.00,VWS V14.00,2013-01-11 10:03:00,
2013-01-11 02:08:00,36.4,31.7,30.11,North,0,0.0,0.0,83,0.00,,CLR,0.00,VWS V14.00,2013-01-11 10:08:00,
2013-01-11 02:13:00,36.4,31.7,30.11,North,0,0.0,0.0,83,0.00,,CLR,0.00,VWS V14.00,2013-01-11 10:13:00,
2013-01-11 02:18:00,36.7,32.0,30.10,North,0,0.0,0.0,83,0.00,,CLR,0.00,VWS V14.00,2013-01-11 10:18:00,
2013-01-11 02:23:00,36.5,31.5,30.10,SSW,206,0.0,3.0,82,0.00,,CLR,0.00,VWS V14.00,2013-01-11 10:23:00,
2013-01-11 02:28:00,36.6,31.6,30.10,SSW,204,0.0,3.0,82,0.00,,CLR,0.00,VWS V14.00,2013-01-11 10:28:00,
2013-01-11 02:30:00,36.1,31.7,30.11,SSW,203,0.0,0.0,84,0.00,,CLR,0.00,VWS V14.00,2013-01-11 10:30:00,
2013-01-11 02:33:00,37.0,32.0,30.10,SSW,203,0.0,0.0,82,0.00,,CLR,0.00,VWS V14.00,2013-01-11 10:33:00,
2013-01-11 02:38:00,36.8,31.8,30.10,SSW,202,0.0,0.0,82,0.00,,CLR,0.00,VWS V14.00,2013-01-11 10:38:00,
2013-01-11 02:43:00,36.8,31.8,30.10,SSW,203,0.0,0.0,82,0.00,,CLR,0.00,VWS V14.00,2013-01-11 10:43:00,
2013-01-11 02:48:00,36.6,31.9,30.10,SSW,204,0.0,0.0,83,0.00,,CLR,0.00,VWS V14.00,2013-01-11 10:48:00,
2013-01-11 02:53:00,36.6,31.9,30.10,SSW,203,0.0,0.0,83,0.00,,CLR,0.00,VWS V14.00,2013-01-11 10:53:00,
2013-01-11 02:58:00,36.5,31.8,30.10,SSW,204,0.0,0.0,83,0.00,,CLR,0.00,VWS V14.00,2013-01-11 10:58:00,
2013-01-11 03:00:00,36.0,31.4,30.11,SSE,168,0.0,1.0,83,0.00,,CLR,0.00,VWS V14.00,2013-01-11 11:00:00,
2013-01-11 03:03:00,36.7,32.0,30.11,SSW,203,0.0,0.0,83,0.00,,CLR,0.00,VWS V14.00,2013-01-11 11:03:00,
2013-01-11 03:08:00,36.4,31.7,30.11,SSW,204,0.0,0.0,83,0.00,,CLR,0.00,VWS V14.00,2013-01-11 11:08:00,
2013-01-11 03:13:00,36.2,31.5,30.11,SSW,203,0.0,0.0,83,0.00,,CLR,0.00,VWS V14.00,2013-01-11 11:13:00,
2013-01-11 03:18:00,36.2,31.5,30.11,SSW,202,0.0,0.0,83,0.00,,CLR,0.00,VWS V14.00,2013-01-11 11:18:00,
2013-01-11 03:23:00,36.1,31.5,30.11,SSW,202,0.0,0.0,83,0.00,,CLR,0.00,VWS V14.00,2013-01-11 11:23:00,
2013-01-11 03:28:00,36.3,31.6,30.11,SSW,203,0.0,0.0,83,0.00,,CLR,0.00,VWS V14.00,2013-01-11 11:28:00,
2013-01-11 03:30:00,35.5,30.9,30.11,South,169,0.0,0.0,83,0.00,,CLR,0.00,VWS V14.00,2013-01-11 11:30:00,
2013-01-11 03:33:00,35.9,31.5,30.11,SSW,204,0.0,0.0,84,0.00,,CLR,0.00,VWS V14.00,2013-01-11 11:33:00,
2013-01-11 03:38:00,36.3,31.6,30.11,SSW,202,0.0,0.0,83,0.00,,CLR,0.00,VWS V14.00,2013-01-11 11:38:00,
2013-01-11 03:43:00,35.9,31.2,30.11,SSW,203,0.0,0.0,83,0.00,,CLR,0.00,VWS V14.00,2013-01-11 11:43:00,
2013-01-11 03:48:00,36.1,31.5,30.11,SSE,167,0.0,1.0,83,0.00,,CLR,0.00,VWS V14.00,2013-01-11 11:48:00,
2013-01-11 03:53:00,35.9,31.2,30.11,South,169,0.0,1.0,83,0.00,,CLR,0.00,VWS V14.00,2013-01-11 11:53:00,
2013-01-11 03:58:00,35.8,31.1,30.11,SSE,168,0.0,1.0,83,0.00,,CLR,0.00,VWS V14.00,2013-01-11 11:58:00,
2013-01-11 04:00:00,35.0,31.0,30.12,South,169,0.0,0.0,85,0.00,,CLR,0.00,VWS V14.00,2013-01-11 12:00:00,
2013-01-11 04:03:00,35.8,31.1,30.11,SSE,168,0.0,0.0,83,0.00,,CLR,0.00,VWS V14.00,2013-01-11 12:03:00,
2013-01-11 04:08:00,35.6,31.0,30.11,SSE,168,0.0,0.0,83,0.00,,CLR,0.00,VWS V14.00,2013-01-11 12:08:00,
2013-01-11 04:13:00,35.4,30.8,30.11,SSE,168,0.0,0.0,83,0.00,,CLR,0.00,VWS V14.00,2013-01-11 12:13:00,
2013-01-11 04:18:00,35.7,31.0,30.11,South,169,0.0,0.0,83,0.00,,CLR,0.00,VWS V14.00,2013-01-11 12:18:00,
2013-01-11 04:23:00,35.6,31.0,30.11,SSE,168,0.0,0.0,83,0.00,,CLR,0.00,VWS V14.00,2013-01-11 12:23:00,
2013-01-11 04:28:00,35.5,30.9,30.11,SSE,168,0.0,0.0,83,0.00,,CLR,0.00,VWS V14.00,2013-01-11 12:28:00,
2013-01-11 04:30:00,34.1,29.8,30.12,South,169,0.0,0.0,84,0.00,,CLR,0.00,VWS V14.00,2013-01-11 12:30:00,
2013-01-11 04:33:00,35.3,30.7,30.11,SSE,168,0.0,0.0,83,0.00,,CLR,0.00,VWS V14.00,2013-01-11 12:33:00,
2013-01-11 04:38:00,35.3,31.0,30.10,South,169,0.0,0.0,84,0.00,,CLR,0.00,VWS V14.00,2013-01-11 12:38:00,
2013-01-11 04:43:00,35.3,31.2,30.11,South,169,0.0,0.0,85,0.00,,CLR,0.00,VWS V14.00,2013-01-11 12:43:00,
2013-01-11 04:48:00,35.2,30.9,30.11,South,169,0.0,0.0,84,0.00,,CLR,0.00,VWS V14.00,2013-01-11 12:48:00,
2013-01-11 04:53:00,35.1,31.0,30.11,SSE,168,0.0,0.0,85,0.00,,CLR,0.00,VWS V14.00,2013-01-11 12:53:00,
2013-01-11 04:58:00,35.1,31.0,30.12,SSE,168,0.0,0.0,85,0.00,,CLR,0.00,VWS V14.00,2013-01-11 12:58:00,
2013-01-11 05:00:00,33.7,30.2,30.14,South,169,0.0,0.0,87,0.00,,CLR,0.00,VWS V14.00,2013-01-11 13:00:00,
2013-01-11 05:03:00,34.9,30.9,30.12,SSE,168,0.0,0.0,85,0.00,,CLR,0.00,VWS V14.00,2013-01-11 13:03:00,
2013-01-11 05:08:00,34.5,30.5,30.11,South,169,0.0,0.0,85,0.00,,CLR,0.00,VWS V14.00,2013-01-11 13:08:00,
2013-01-11 05:13:00,34.8,30.8,30.12,SSE,168,0.0,0.0,85,0.00,,CLR,0.00,VWS V14.00,2013-01-11 13:13:00,
2013-01-11 05:18:00,34.6,30.3,30.12,South,169,0.0,0.0,84,0.00,,CLR,0.00,VWS V14.00,2013-01-11 13:18:00,
2013-01-11 05:23:00,34.3,30.0,30.12,SSE,168,0.0,0.0,84,0.00,,CLR,0.00,VWS V14.00,2013-01-11 13:23:00,
2013-01-11 05:28:00,34.4,30.1,30.12,SSE,168,0.0,0.0,84,0.00,,CLR,0.00,VWS V14.00,2013-01-11 13:28:00,
2013-01-11 05:30:00,33.6,29.9,30.15,SSE,168,0.0,0.0,86,0.00,,CLR,0.00,VWS V14.00,2013-01-11 13:30:00,
2013-01-11 05:33:00,34.0,30.0,30.13,SSE,167,0.0,0.0,85,0.00,,CLR,0.00,VWS V14.00,2013-01-11 13:33:00,
2013-01-11 05:38:00,34.1,30.4,30.13,South,169,0.0,0.0,86,0.00,,CLR,0.00,VWS V14.00,2013-01-11 13:38:00,
2013-01-11 05:43:00,34.0,30.3,30.13,SSE,168,0.0,0.0,86,0.00,,CLR,0.00,VWS V14.00,2013-01-11 13:43:00,
2013-01-11 05:48:00,33.9,30.5,30.13,South,169,0.0,0.0,87,0.00,,CLR,0.00,VWS V14.00,2013-01-11 13:48:00,
2013-01-11 05:53:00,33.7,30.0,30.13,SSE,168,0.0,0.0,86,0.00,,CLR,0.00,VWS V14.00,2013-01-11 13:53:00,
2013-01-11 05:58:00,33.7,30.2,30.13,South,169,0.0,0.0,87,0.00,,CLR,0.00,VWS V14.00,2013-01-11 13:58:00,
2013-01-11 06:00:00,32.6,29.5,30.15,SSE,168,0.0,0.0,88,0.00,,CLR,0.00,VWS V14.00,2013-01-11 14:00:00,
2013-01-11 06:03:00,33.5,30.0,30.13,SSE,168,0.0,0.0,87,0.00,,CLR,0.00,VWS V14.00,2013-01-11 14:03:00,
2013-01-11 06:08:00,33.5,30.3,30.14,SSE,168,0.0,0.0,88,0.00,,CLR,0.00,VWS V14.00,2013-01-11 14:08:00,
2013-01-11 06:13:00,33.9,30.7,30.14,SSE,168,0.0,0.0,88,0.00,,CLR,0.00,VWS V14.00,2013-01-11 14:13:00,
2013-01-11 06:18:00,33.6,30.1,30.14,South,169,0.0,0.0,87,0.00,,CLR,0.00,VWS V14.00,2013-01-11 14:18:00,
2013-01-11 06:23:00,33.7,30.2,30.15,SSE,168,0.0,0.0,87,0.00,,CLR,0.00,VWS V14.00,2013-01-11 14:23:00,
2013-01-11 06:28:00,33.5,30.0,30.15,SSE,168,0.0,0.0,87,0.00,,CLR,0.00,VWS V14.00,2013-01-11 14:28:00,
2013-01-11 06:30:00,32.6,29.5,30.16,SSE,168,0.0,0.0,88,0.00,,CLR,0.00,VWS V14.00,2013-01-11 14:30:00,
2013-01-11 06:33:00,33.1,29.7,30.14,SSE,168,0.0,0.0,87,0.00,,CLR,0.00,VWS V14.00,2013-01-11 14:33:00,
2013-01-11 06:38:00,33.6,30.1,30.15,SSE,168,0.0,0.0,87,0.00,,CLR,0.00,VWS V14.00,2013-01-11 14:38:00,
2013-01-11 06:43:00,33.3,29.9,30.15,South,169,0.0,0.0,87,0.00,,CLR,0.00,VWS V14.00,2013-01-11 14:43:00,
2013-01-11 06:48:00,33.0,29.6,30.15,South,170,0.0,0.0,87,0.00,,CLR,0.00,VWS V14.00,2013-01-11 14:48:00,
2013-01-11 06:53:00,33.1,29.7,30.15,SSE,168,0.0,0.0,87,0.00,,CLR,0.00,VWS V14.00,2013-01-11 14:53:00,
2013-01-11 06:58:00,33.1,29.7,30.15,South,169,0.0,0.0,87,0.00,,CLR,0.00,VWS V14.00,2013-01-11 14:58:00,
2013-01-11 07:00:00,32.5,29.4,30.17,South,169,0.0,0.0,88,0.00,,CLR,0.00,VWS V14.00,2013-01-11 15:00:00,
2013-01-11 07:03:00,32.9,29.7,30.15,South,169,0.0,0.0,88,0.00,,CLR,0.00,VWS V14.00,2013-01-11 15:03:00,
2013-01-11 07:08:00,32.5,29.4,30.15,South,169,0.0,0.0,88,0.00,,CLR,0.00,VWS V14.00,2013-01-11 15:08:00,
2013-01-11 07:13:00,33.1,29.9,30.15,SSE,168,0.0,0.0,88,0.00,,CLR,0.00,VWS V14.00,2013-01-11 15:13:00,
2013-01-11 07:18:00,32.7,29.5,30.16,SSE,168,0.0,0.0,88,0.00,,CLR,0.00,VWS V14.00,2013-01-11 15:18:00,
2013-01-11 07:23:00,32.7,29.5,30.15,SSE,168,0.0,0.0,88,0.00,,CLR,0.00,VWS V14.00,2013-01-11 15:23:00,
2013-01-11 07:28:00,32.5,29.4,30.16,SSE,168,0.0,0.0,88,0.00,,CLR,0.00,VWS V14.00,2013-01-11 15:28:00,
2013-01-11 07:30:00,33.2,30.3,30.18,SSE,167,0.0,0.0,89,0.00,,CLR,0.00,VWS V14.00,2013-01-11 15:30:00,
2013-01-11 07:33:00,32.9,29.7,30.16,South,169,0.0,0.0,88,0.00,,CLR,0.00,VWS V14.00,2013-01-11 15:33:00,
2013-01-11 07:38:00,32.5,29.4,30.16,South,169,0.0,0.0,88,0.00,,CLR,0.00,VWS V14.00,2013-01-11 15:38:00,
2013-01-11 07:43:00,32.9,29.7,30.16,South,169,0.0,0.0,88,0.00,,CLR,0.00,VWS V14.00,2013-01-11 15:43:00,
2013-01-11 07:48:00,32.4,29.2,30.16,South,169,0.0,0.0,88,0.00,,CLR,0.00,VWS V14.00,2013-01-11 15:48:00,
2013-01-11 07:53:00,32.7,29.5,30.17,SSE,167,0.0,0.0,88,0.00,,CLR,0.00,VWS V14.00,2013-01-11 15:53:00,
2013-01-11 07:58:00,32.8,29.6,30.17,South,169,0.0,0.0,88,0.00,,CLR,0.00,VWS V14.00,2013-01-11 15:58:00,
2013-01-11 08:00:00,34.8,32.2,30.18,SSE,168,0.0,0.0,90,0.00,,CLR,0.00,VWS V14.00,2013-01-11 16:00:00,
2013-01-11 08:03:00,32.8,29.6,30.17,SSE,168,0.0,0.0,88,0.00,,CLR,0.00,VWS V14.00,2013-01-11 16:03:00,
2013-01-11 08:08:00,32.6,29.5,30.17,SSE,168,0.0,0.0,88,0.00,,CLR,0.00,VWS V14.00,2013-01-11 16:08:00,
2013-01-11 08:13:00,33.0,30.1,30.17,SSE,168,0.0,0.0,89,0.00,,CLR,0.00,VWS V14.00,2013-01-11 16:13:00,
2013-01-11 08:18:00,32.7,29.8,30.17,South,169,0.0,0.0,89,0.00,,CLR,0.00,VWS V14.00,2013-01-11 16:18:00,
2013-01-11 08:23:00,33.1,30.2,30.18,SSE,168,0.0,0.0,89,0.00,,CLR,0.00,VWS V14.00,2013-01-11 16:23:00,
2013-01-11 08:28:00,33.4,30.5,30.17,SSE,167,0.0,0.0,89,0.00,,CLR,0.00,VWS V14.00,2013-01-11 16:28:00,
2013-01-11 08:30:00,37.4,33.6,30.18,SSE,168,0.0,0.0,86,0.00,,CLR,0.00,VWS V14.00,2013-01-11 16:30:00,
2013-01-11 08:33:00,33.1,30.2,30.17,SSE,168,0.0,0.0,89,0.00,,CLR,0.00,VWS V14.00,2013-01-11 16:33:00,
2013-01-11 08:38:00,33.8,31.2,30.17,SSE,168,0.0,0.0,90,0.00,,CLR,0.00,VWS V14.00,2013-01-11 16:38:00,
2013-01-11 08:43:00,33.9,31.3,30.18,South,169,0.0,0.0,90,0.00,,CLR,0.00,VWS V14.00,2013-01-11 16:43:00,
2013-01-11 08:48:00,34.0,31.4,30.18,South,169,0.0,0.0,90,0.00,,CLR,0.00,VWS V14.00,2013-01-11 16:48:00,
2013-01-11 08:53:00,34.5,32.2,30.18,South,169,0.0,0.0,91,0.00,,CLR,0.00,VWS V14.00,2013-01-11 16:53:00,
2013-01-11 08:58:00,34.8,32.2,30.18,South,169,0.0,0.0,90,0.00,,CLR,0.00,VWS V14.00,2013-01-11 16:58:00,
2013-01-11 09:00:00,39.6,34.6,30.18,SSE,168,0.0,0.0,82,0.00,,CLR,0.00,VWS V14.00,2013-01-11 17:00:00,
2013-01-11 09:03:00,35.3,32.7,30.18,South,169,0.0,0.0,90,0.00,,CLR,0.00,VWS V14.00,2013-01-11 17:03:00,
2013-01-11 09:08:00,35.9,33.3,30.18,South,169,0.0,0.0,90,0.00,,CLR,0.00,VWS V14.00,2013-01-11 17:08:00,
2013-01-11 09:13:00,36.2,33.3,30.18,SSE,168,0.0,0.0,89,0.00,,CLR,0.00,VWS V14.00,2013-01-11 17:13:00,
2013-01-11 09:18:00,36.4,33.2,30.17,South,169,0.0,0.0,88,0.00,,CLR,0.00,VWS V14.00,2013-01-11 17:18:00,
2013-01-11 09:23:00,37.1,33.6,30.17,South,169,0.0,0.0,87,0.00,,CLR,0.00,VWS V14.00,2013-01-11 17:23:00,
2013-01-11 09:28:00,37.7,34.2,30.18,SSE,168,0.0,0.0,87,0.00,,CLR,0.00,VWS V14.00,2013-01-11 17:28:00,
2013-01-11 09:30:00,41.9,35.2,30.17,SSE,167,0.0,0.0,77,0.00,,CLR,0.00,VWS V14.00,2013-01-11 17:30:00,
2013-01-11 09:33:00,37.9,34.1,30.17,SSE,168,0.0,0.0,86,0.00,,CLR,0.00,VWS V14.00,2013-01-11 17:33:00,
2013-01-11 09:38:00,38.4,34.3,30.17,South,169,0.0,0.0,85,0.00,,CLR,0.00,VWS V14.00,2013-01-11 17:38:00,
2013-01-11 09:43:00,38.8,34.1,30.18,South,169,0.0,0.0,83,0.00,,CLR,0.00,VWS V14.00,2013-01-11 17:43:00,
2013-01-11 09:48:00,39.0,34.3,30.18,South,169,0.0,0.0,83,0.00,,BKN120,0.00,VWS V14.00,2013-01-11 17:48:00,
2013-01-11 09:53:00,39.4,34.7,30.18,South,169,0.0,0.0,83,0.00,,BKN120,0.00,VWS V14.00,2013-01-11 17:53:00,
2013-01-11 09:58:00,39.5,34.5,30.18,SSE,167,0.0,0.0,82,0.00,,BKN120,0.00,VWS V14.00,2013-01-11 17:58:00,
2013-01-11 10:00:00,44.4,35.2,30.16,SSE,166,0.0,0.0,70,0.00,,CLR,0.00,VWS V14.00,2013-01-11 18:00:00,
2013-01-11 10:03:00,39.8,35.1,30.17,South,169,0.0,0.0,83,0.00,,BKN120,0.00,VWS V14.00,2013-01-11 18:03:00,
2013-01-11 10:08:00,40.2,35.2,30.17,South,169,0.0,0.0,82,0.00,,BKN120,0.00,VWS V14.00,2013-01-11 18:08:00,
2013-01-11 10:13:00,40.6,35.5,30.17,SSE,168,0.0,0.0,82,0.00,,BKN120,0.00,VWS V14.00,2013-01-11 18:13:00,
2013-01-11 10:18:00,40.7,35.3,30.17,South,169,0.0,0.0,81,0.00,,BKN120,0.00,VWS V14.00,2013-01-11 18:18:00,
2013-01-11 10:23:00,41.2,35.5,30.18,SSE,168,0.0,0.0,80,0.00,,BKN120,0.00,VWS V14.00,2013-01-11 18:23:00,
2013-01-11 10:28:00,41.9,35.2,30.17,SSE,168,0.0,0.0,77,0.00,,BKN120,0.00,VWS V14.00,2013-01-11 18:28:00,
2013-01-11 10:30:00,46.3,35.6,30.14,SSE,166,0.0,0.0,66,0.00,,CLR,0.00,VWS V14.00,2013-01-11 18:30:00,
2013-01-11 10:33:00,42.2,35.5,30.16,SSE,168,0.0,0.0,77,0.00,,BKN120,0.00,VWS V14.00,2013-01-11 18:33:00,
2013-01-11 10:38:00,42.8,36.1,30.17,South,169,0.0,0.0,77,0.00,,BKN120,0.00,VWS V14.00,2013-01-11 18:38:00,
2013-01-11 10:43:00,43.2,35.8,30.16,SSE,166,0.0,0.0,75,0.00,,BKN120,0.00,VWS V14.00,2013-01-11 18:43:00,
2013-01-11 10:48:00,43.7,35.3,30.17,SSE,166,0.0,0.0,72,0.00,,BKN120,0.00,VWS V14.00,2013-01-11 18:48:00,
2013-01-11 10:53:00,43.8,35.0,30.16,SSE,167,0.0,0.0,71,0.00,,BKN120,0.00,VWS V14.00,2013-01-11 18:53:00,
2013-01-11 10:58:00,44.5,35.7,30.16,SSE,166,0.0,0.0,71,0.00,,BKN120,0.00,VWS V14.00,2013-01-11 18:58:00,
2013-01-11 11:00:00,48.7,36.7,30.12,SSW,197,1.0,1.0,63,0.00,,CLR,0.00,VWS V14.00,2013-01-11 19:00:00,
2013-01-11 11:03:00,44.7,35.2,30.16,SSE,167,0.0,0.0,69,0.00,,BKN120,0.00,VWS V14.00,2013-01-11 19:03:00,
2013-01-11 11:08:00,45.1,35.9,30.16,SSE,165,0.0,0.0,70,0.00,,BKN120,0.00,VWS V14.00,2013-01-11 19:08:00,
2013-01-11 11:13:00,45.1,35.2,30.15,SSE,166,0.0,0.0,68,0.00,,BKN120,0.00,VWS V14.00,2013-01-11 19:13:00,
2013-01-11 11:18:00,45.6,35.3,30.15,SSE,166,0.0,0.0,67,0.00,,BKN120,0.00,VWS V14.00,2013-01-11 19:18:00,
2013-01-11 11:23:00,45.8,35.5,30.14,SSE,165,0.0,0.0,67,0.00,,BKN120,0.00,VWS V14.00,2013-01-11 19:23:00,
2013-01-11 11:28:00,46.4,35.7,30.14,SSE,166,0.0,0.0,66,0.00,,BKN120,0.00,VWS V14.00,2013-01-11 19:28:00,
2013-01-11 11:30:00,50.6,37.2,30.11,NNW,330,0.0,2.0,60,0.00,,CLR,0.00,VWS V14.00,2013-01-11 19:30:00,
2013-01-11 11:33:00,46.6,36.2,30.14,SSE,166,0.0,0.0,67,0.00,,BKN120,0.00,VWS V14.00,2013-01-11 19:33:00,
2013-01-11 11:38:00,47.0,36.2,30.13,SSE,168,0.0,0.0,66,0.00,,BKN120,0.00,VWS V14.00,2013-01-11 19:38:00,
2013-01-11 11:43:00,47.4,36.6,30.13,South,182,0.0,0.0,66,0.00,,BKN120,0.00,VWS V14.00,2013-01-11 19:43:00,
2013-01-11 11:48:00,47.7,36.1,30.13,South,182,0.0,0.0,64,0.00,,BKN120,0.00,VWS V14.00,2013-01-11 19:48:00,
2013-01-11 11:53:00,48.5,36.9,30.12,South,182,0.0,0.0,64,0.00,,BKN120,0.00,VWS V14.00,2013-01-11 19:53:00,
2013-01-11 11:58:00,48.9,36.9,30.12,South,182,0.0,0.0,63,0.00,,BKN120,0.00,VWS V14.00,2013-01-11 19:58:00,
2013-01-11 12:00:00,50.7,36.9,30.09,NNW,347,0.0,1.0,59,0.00,,CLR,0.00,VWS V14.00,2013-01-11 20:00:00,
2013-01-11 12:03:00,49.1,36.7,30.12,SSW,203,0.0,2.0,62,0.00,,BKN120,0.00,VWS V14.00,2013-01-11 20:03:00,
2013-01-11 12:08:00,49.5,36.6,30.12,SSW,211,0.0,2.0,61,0.00,,BKN120,0.00,VWS V14.00,2013-01-11 20:08:00,
2013-01-11 12:13:00,49.6,36.7,30.11,SSW,212,0.0,2.0,61,0.00,,BKN120,0.00,VWS V14.00,2013-01-11 20:13:00,
2013-01-11 12:18:00,49.8,36.5,30.11,SSW,213,0.0,2.0,60,0.00,,BKN120,0.00,VWS V14.00,2013-01-11 20:18:00,
2013-01-11 12:23:00,50.3,37.0,30.11,SSW,213,0.0,2.0,60,0.00,,BKN120,0.00,VWS V14.00,2013-01-11 20:23:00,
2013-01-11 12:28:00,50.5,37.2,30.10,NNW,329,0.0,2.0,60,0.00,,BKN120,0.00,VWS V14.00,2013-01-11 20:28:00,
2013-01-11 12:30:00,51.0,37.2,30.09,North,0,0.0,1.0,59,0.00,,CLR,0.00,VWS V14.00,2013-01-11 20:30:00,
2013-01-11 12:33:00,50.8,37.0,30.10,SSW,195,0.0,1.0,59,0.00,,BKN120,0.00,VWS V14.00,2013-01-11 20:33:00,
2013-01-11 12:38:00,50.8,37.0,30.10,WNW,284,0.0,1.0,59,0.00,,BKN120,0.00,VWS V14.00,2013-01-11 20:38:00,
2013-01-11 12:43:00,50.5,37.2,30.09,SW,235,0.0,1.0,60,0.00,,BKN120,0.00,VWS V14.00,2013-01-11 20:43:00,
2013-01-11 12:48:00,50.5,37.2,30.09,WSW,242,0.0,1.0,60,0.00,,BKN120,0.00,VWS V14.00,2013-01-11 20:48:00,
2013-01-11 12:53:00,50.7,36.9,30.09,West,261,0.0,1.0,59,0.00,,BKN120,0.00,VWS V14.00,2013-01-11 20:53:00,
2013-01-11 12:58:00,50.7,36.9,30.09,NNW,347,0.0,1.0,59,0.00,,BKN120,0.00,VWS V14.00,2013-01-11 20:58:00,
2013-01-11 13:00:00,52.8,38.5,30.08,SSW,207,0.0,1.0,58,0.00,,CLR,0.00,VWS V14.00,2013-01-11 21:00:00,
2013-01-11 13:03:00,50.5,36.3,30.09,SW,225,0.0,1.0,58,0.00,,BKN120,0.00,VWS V14.00,2013-01-11 21:03:00,
2013-01-11 13:08:00,50.8,37.4,30.08,SW,231,0.0,1.0,60,0.00,,BKN120,0.00,VWS V14.00,2013-01-11 21:08:00,
2013-01-11 13:13:00,50.9,37.1,30.09,WSW,237,0.0,1.0,59,0.00,,BKN120,0.00,VWS V14.00,2013-01-11 21:13:00,
2013-01-11 13:18:00,50.8,37.4,30.08,NNW,328,0.0,1.0,60,0.00,,BKN120,0.00,VWS V14.00,2013-01-11 21:18:00,
2013-01-11 13:23:00,51.0,37.2,30.09,NW,311,0.0,1.0,59,0.00,,BKN120,0.00,VWS V14.00,2013-01-11 21:23:00,
2013-01-11 13:28:00,51.2,37.4,30.09,North,1,1.0,1.0,59,0.00,,BKN120,0.00,VWS V14.00,2013-01-11 21:28:00,
2013-01-11 13:30:00,54.0,39.1,30.07,SW,232,1.0,2.0,57,0.00,,CLR,0.00,VWS V14.00,2013-01-11 21:30:00,
2013-01-11 13:33:00,51.1,37.3,30.09,North,0,0.0,0.0,59,0.00,,BKN120,0.00,VWS V14.00,2013-01-11 21:33:00,
2013-01-11 13:38:00,51.4,37.6,30.08,North,2,0.0,0.0,59,0.00,,BKN120,0.00,VWS V14.00,2013-01-11 21:38:00,
2013-01-11 13:43:00,51.5,37.7,30.08,North,1,0.0,1.0,59,0.00,,BKN120,0.00,VWS V14.00,2013-01-11 21:43:00,
2013-01-11 13:48:00,51.9,38.0,30.08,SW,215,0.0,1.0,59,0.00,,BKN100,0.00,VWS V14.00,2013-01-11 21:48:00,
2013-01-11 13:53:00,52.2,38.3,30.07,NE,41,0.0,1.0,59,0.00,,BKN100,0.00,VWS V14.00,2013-01-11 21:53:00,
2013-01-11 13:58:00,52.8,38.5,30.08,SSW,206,0.0,1.0,58,0.00,,BKN100,0.00,VWS V14.00,2013-01-11 21:58:00,
2013-01-11 14:00:00,55.0,40.1,30.07,WSW,241,2.0,6.0,57,0.00,,CLR,0.00,VWS V14.00,2013-01-11 22:00:00,
2013-01-11 14:03:00,52.5,37.7,30.07,SW,214,0.0,1.0,57,0.00,,BKN100,0.00,VWS V14.00,2013-01-11 22:03:00,
2013-01-11 14:08:00,53.0,38.2,30.08,WNW,287,0.0,1.0,57,0.00,,BKN100,0.00,VWS V14.00,2013-01-11 22:08:00,
2013-01-11 14:13:00,53.1,38.7,30.07,WSW,249,2.0,2.0,58,0.00,,BKN100,0.00,VWS V14.00,2013-01-11 22:13:00,
2013-01-11 14:18:00,53.1,38.7,30.07,South,188,0.0,2.0,58,0.00,,BKN100,0.00,VWS V14.00,2013-01-11 22:18:00,
2013-01-11 14:23:00,53.5,38.7,30.07,South,188,0.0,2.0,57,0.00,,BKN100,0.00,VWS V14.00,2013-01-11 22:23:00,
2013-01-11 14:28:00,54.1,39.2,30.07,SSW,212,0.0,2.0,57,0.00,,BKN100,0.00,VWS V14.00,2013-01-11 22:28:00,
2013-01-11 14:30:00,55.5,42.7,30.07,WNW,288,0.0,4.0,62,0.00,,CLR,0.00,VWS V14.00,2013-01-11 22:30:00,
2013-01-11 14:33:00,54.2,39.3,30.07,North,0,0.0,1.0,57,0.00,,BKN100,0.00,VWS V14.00,2013-01-11 22:33:00,
2013-01-11 14:38:00,54.2,39.3,30.07,SW,220,6.0,6.0,57,0.00,,BKN100,0.00,VWS V14.00,2013-01-11 22:38:00,
2013-01-11 14:43:00,53.7,39.3,30.07,South,182,0.0,6.0,58,0.00,,BKN100,0.00,VWS V14.00,2013-01-11 22:43:00,
2013-01-11 14:48:00,53.5,39.1,30.07,WNW,301,0.0,6.0,58,0.00,,BKN100,0.00,VWS V14.00,2013-01-11 22:48:00,
2013-01-11 14:54:00,53.9,39.9,30.07,NW,309,0.0,6.0,59,0.00,,BKN100,0.00,VWS V14.00,2013-01-11 22:54:00,
2013-01-11 14:59:00,54.2,39.8,30.07,South,189,1.0,6.0,58,0.00,,BKN100,0.00,VWS V14.00,2013-01-11 22:59:00,
2013-01-11 15:00:00,54.9,43.4,30.06,North,0,0.0,2.0,65,0.00,,CLR,0.00,VWS V14.00,2013-01-11 23:00:00,
2013-01-11 15:04:00,55.0,40.5,30.07,SW,227,0.0,2.0,58,0.00,,BKN100,0.00,VWS V14.00,2013-01-11 23:04:00,
2013-01-11 15:09:00,55.2,41.1,30.07,SSW,207,0.0,2.0,59,0.00,,BKN100,0.00,VWS V14.00,2013-01-11 23:09:00,
2013-01-11 15:14:00,55.3,42.1,30.07,West,259,0.0,2.0,61,0.00,,BKN100,0.00,VWS V14.00,2013-01-11 23:14:00,
2013-01-11 15:19:00,55.8,42.6,30.07,South,191,0.0,2.0,61,0.00,,BKN100,0.00,VWS V14.00,2013-01-11 23:19:00,
2013-01-11 15:24:00,55.5,42.3,30.06,SSW,212,2.0,3.0,61,0.00,,BKN100,0.00,VWS V14.00,2013-01-11 23:24:00,
2013-01-11 15:29:00,55.4,42.2,30.06,NW,313,0.0,4.0,61,0.00,,BKN100,0.00,VWS V14.00,2013-01-11 23:29:00,
2013-01-11 15:30:00,52.8,43.3,30.06,NNW,344,0.0,1.0,70,0.00,,CLR,0.00,VWS V14.00,2013-01-11 23:30:00,
2013-01-11 15:34:00,56.1,43.7,30.06,WNW,286,0.0,1.0,63,0.00,,BKN100,0.00,VWS V14.00,2013-01-11 23:34:00,
2013-01-11 15:38:00,55.9,43.1,30.06,East,94,0.0,1.0,62,0.00,,BKN100,0.00,VWS V14.00,2013-01-11 23:38:00,
2013-01-11 15:43:00,56.1,43.7,30.06,NNE,24,0.0,1.0,63,0.00,,BKN100,0.00,VWS V14.00,2013-01-11 23:43:00,
2013-01-11 15:48:00,56.0,43.6,30.06,SW,233,0.0,2.0,63,0.00,,BKN095,0.00,VWS V14.00,2013-01-11 23:48:00,
2013-01-11 15:53:00,55.7,43.3,30.06,WSW,258,0.0,2.0,63,0.00,,BKN095,0.00,VWS V14.00,2013-01-11 23:53:00,
2013-01-11 15:58:00,55.2,43.7,30.05,North,0,0.0,2.0,65,0.00,,BKN095,0.00,VWS V14.00,2013-01-11 23:58:00,
2013-01-11 16:00:00,52.1,43.4,30.05,NNW,344,0.0,0.0,72,0.00,,CLR,0.00,VWS V14.00,2013-01-12 00:00:00,
2013-01-11 16:03:00,54.2,43.1,30.06,North,0,0.0,0.0,66,0.00,,BKN095,0.00,VWS V14.00,2013-01-12 00:03:00,
2013-01-11 16:08:00,53.8,43.1,30.05,NNW,347,0.0,1.0,67,0.00,,BKN095,0.00,VWS V14.00,2013-01-12 00:08:00,
2013-01-11 16:13:00,53.6,43.3,30.06,NNW,347,0.0,1.0,68,0.00,,BKN095,0.00,VWS V14.00,2013-01-12 00:13:00,
2013-01-11 16:18:00,53.4,43.5,30.06,NNW,344,0.0,1.0,69,0.00,,SCT030,0.00,VWS V14.00,2013-01-12 00:18:00,
2013-01-11 16:23:00,53.1,43.6,30.06,NNW,344,0.0,1.0,70,0.00,,SCT030,0.00,VWS V14.00,2013-01-12 00:23:00,
2013-01-11 16:28:00,53.0,43.5,30.06,NNW,344,0.0,1.0,70,0.00,,SCT030,0.00,VWS V14.00,2013-01-12 00:28:00,
2013-01-11 16:30:00,51.1,43.8,30.05,NNW,343,0.0,1.0,76,0.00,,CLR,0.00,VWS V14.00,2013-01-12 00:30:00,
2013-01-11 16:33:00,52.8,43.7,30.06,NNW,344,0.0,0.0,71,0.00,,SCT030,0.00,VWS V14.00,2013-01-12 00:33:00,
2013-01-11 16:38:00,52.6,43.5,30.06,NNW,344,0.0,0.0,71,0.00,,SCT030,0.00,VWS V14.00,2013-01-12 00:38:00,
2013-01-11 16:43:00,52.7,43.9,30.05,NNW,344,0.0,0.0,72,0.00,,SCT030,0.00,VWS V14.00,2013-01-12 00:43:00,
2013-01-11 16:48:00,52.5,43.8,30.06,NNW,344,0.0,0.0,72,0.00,,SCT030,0.00,VWS V14.00,2013-01-12 00:48:00,
2013-01-11 16:53:00,52.1,43.4,30.06,NNW,344,0.0,0.0,72,0.00,,SCT030,0.00,VWS V14.00,2013-01-12 00:53:00,
2013-01-11 16:58:00,52.2,43.5,30.05,NNW,344,0.0,0.0,72,0.00,,SCT030,0.00,VWS V14.00,2013-01-12 00:58:00,
2013-01-11 17:00:00,49.5,42.9,30.05,NNW,343,0.0,0.0,78,0.00,,CLR,0.00,VWS V14.00,2013-01-12 01:00:00,
2013-01-11 17:03:00,52.2,43.8,30.05,NNW,344,0.0,0.0,73,0.00,,SCT030,0.00,VWS V14.00,2013-01-12 01:03:00,
2013-01-11 17:08:00,51.8,43.4,30.05,NNW,344,0.0,1.0,73,0.00,,SCT030,0.00,VWS V14.00,2013-01-12 01:08:00,
2013-01-11 17:13:00,51.6,43.2,30.05,NNW,343,0.0,1.0,73,0.00,,SCT030,0.00,VWS V14.00,2013-01-12 01:13:00,
2013-01-11 17:18:00,51.5,43.5,30.05,NNW,344,0.0,1.0,74,0.00,,SCT030,0.00,VWS V14.00,2013-01-12 01:18:00,
2013-01-11 17:23:00,51.6,44.0,30.05,NNW,344,0.0,1.0,75,0.00,,SCT030,0.00,VWS V14.00,2013-01-12 01:23:00,
2013-01-11 17:29:00,51.0,43.4,30.05,NNW,343,0.0,1.0,75,0.00,,SCT030,0.00,VWS V14.00,2013-01-12 01:29:00,
2013-01-11 17:30:00,48.2,42.7,30.05,NNW,343,0.0,0.0,81,0.00,,CLR,0.00,VWS V14.00,2013-01-12 01:30:00,
2013-01-11 17:34:00,50.6,43.3,30.06,NNW,343,0.0,0.0,76,0.00,,SCT030,0.00,VWS V14.00,2013-01-12 01:34:00,
2013-01-11 17:39:00,50.8,43.5,30.05,NNW,343,0.0,0.0,76,0.00,,SCT030,0.00,VWS V14.00,2013-01-12 01:39:00,
2013-01-11 17:44:00,50.3,43.4,30.05,NNW,343,0.0,0.0,77,0.00,,SCT030,0.00,VWS V14.00,2013-01-12 01:44:00,
2013-01-11 17:49:00,50.3,43.4,30.05,NNW,343,0.0,0.0,77,0.00,,BKN055,0.00,VWS V14.00,2013-01-12 01:49:00,
2013-01-11 17:54:00,49.8,43.2,30.05,NNW,344,0.0,0.0,78,0.00,,BKN055,0.00,VWS V14.00,2013-01-12 01:54:00,
2013-01-11 17:59:00,49.7,42.8,30.05,NNW,343,0.0,0.0,77,0.00,,BKN055,0.00,VWS V14.00,2013-01-12 01:59:00,
2013-01-11 18:00:00,47.1,41.9,30.05,NNW,343,0.0,0.0,82,0.00,,CLR,0.00,VWS V14.00,2013-01-12 02:00:00,
2013-01-11 18:04:00,49.2,42.6,30.05,NNW,343,0.0,0.0,78,0.00,,BKN055,0.00,VWS V14.00,2013-01-12 02:04:00,
2013-01-11 18:09:00,48.8,42.6,30.06,NNW,343,0.0,0.0,79,0.00,,BKN055,0.00,VWS V14.00,2013-01-12 02:09:00,
2013-01-11 18:14:00,48.7,42.5,30.05,NNW,343,0.0,0.0,79,0.00,,BKN055,0.00,VWS V14.00,2013-01-12 02:14:00,
2013-01-11 18:19:00,48.8,42.9,30.06,NNW,343,0.0,0.0,80,0.00,,BKN055,0.00,VWS V14.00,2013-01-12 02:19:00,
2013-01-11 18:24:00,48.4,42.5,30.05,NNW,343,0.0,0.0,80,0.00,,BKN055,0.00,VWS V14.00,2013-01-12 02:24:00,
2013-01-11 18:29:00,48.2,42.3,30.05,NNW,343,0.0,0.0,80,0.00,,BKN055,0.00,VWS V14.00,2013-01-12 02:29:00,
2013-01-11 18:30:00,45.5,41.0,30.05,NNW,343,0.0,0.0,84,0.00,,CLR,0.00,VWS V14.00,2013-01-12 02:30:00,
2013-01-11 18:34:00,48.0,42.5,30.06,NNW,343,0.0,0.0,81,0.00,,BKN055,0.00,VWS V14.00,2013-01-12 02:34:00,
2013-01-11 18:39:00,47.9,42.7,30.05,NNW,343,0.0,0.0,82,0.00,,BKN055,0.00,VWS V14.00,2013-01-12 02:39:00,
2013-01-11 18:44:00,47.9,42.7,30.05,NNW,343,0.0,0.0,82,0.00,,BKN055,0.00,VWS V14.00,2013-01-12 02:44:00,
2013-01-11 18:49:00,47.9,42.7,30.05,NNW,343,0.0,0.0,82,0.00,,CLR,0.00,VWS V14.00,2013-01-12 02:49:00,
2013-01-11 18:54:00,47.5,42.0,30.05,NNW,343,0.0,0.0,81,0.00,,CLR,0.00,VWS V14.00,2013-01-12 02:54:00,
2013-01-11 18:59:00,47.3,42.1,30.06,NNW,343,0.0,0.0,82,0.00,,CLR,0.00,VWS V14.00,2013-01-12 02:59:00,
2013-01-11 19:00:00,44.8,40.9,30.05,NNW,343,0.0,0.0,86,0.00,,CLR,0.00,VWS V14.00,2013-01-12 03:00:00,
2013-01-11 19:04:00,46.9,41.7,30.05,NNW,343,0.0,0.0,82,0.00,,CLR,0.00,VWS V14.00,2013-01-12 03:04:00,
2013-01-11 19:09:00,46.8,41.6,30.05,NNW,343,0.0,0.0,82,0.00,,CLR,0.00,VWS V14.00,2013-01-12 03:09:00,
2013-01-11 19:14:00,46.5,41.3,30.04,NNW,343,0.0,0.0,82,0.00,,CLR,0.00,VWS V14.00,2013-01-12 03:14:00,
2013-01-11 19:19:00,46.3,41.4,30.05,NNW,343,0.0,0.0,83,0.00,,CLR,0.00,VWS V14.00,2013-01-12 03:19:00,
2013-01-11 19:24:00,46.2,41.3,30.05,NNW,343,0.0,0.0,83,0.00,,CLR,0.00,VWS V14.00,2013-01-12 03:24:00,
2013-01-11 19:29:00,45.6,41.0,30.05,NNW,343,0.0,0.0,84,0.00,,CLR,0.00,VWS V14.00,2013-01-12 03:29:00,
2013-01-11 19:30:00,44.4,41.1,30.07,NNW,343,0.0,0.0,88,0.00,,CLR,0.00,VWS V14.00,2013-01-12 03:30:00,
2013-01-11 19:34:00,45.2,40.7,30.05,NNW,343,0.0,0.0,84,0.00,,CLR,0.00,VWS V14.00,2013-01-12 03:34:00,
2013-01-11 19:39:00,45.1,40.6,30.05,NNW,343,0.0,0.0,84,0.00,,CLR,0.00,VWS V14.00,2013-01-12 03:39:00,
2013-01-11 19:44:00,44.7,40.5,30.06,NNW,343,0.0,0.0,85,0.00,,CLR,0.00,VWS V14.00,2013-01-12 03:44:00,
2013-01-11 19:49:00,44.5,40.3,30.05,NNW,343,0.0,0.0,85,0.00,,BKN036,0.00,VWS V14.00,2013-01-12 03:49:00,
2013-01-11 19:54:00,44.8,40.9,30.05,NNW,343,0.0,0.0,86,0.00,,BKN036,0.00,VWS V14.00,2013-01-12 03:54:00,
2013-01-11 19:59:00,44.3,40.4,30.06,NNW,343,0.0,0.0,86,0.00,,BKN036,0.00,VWS V14.00,2013-01-12 03:59:00,
2013-01-11 20:00:00,42.7,40.0,30.08,North,0,0.0,1.0,90,0.05,,CLR,0.07,VWS V14.00,2013-01-12 04:00:00,
2013-01-11 20:04:00,44.6,40.7,30.06,NNW,343,0.0,0.0,86,0.00,,BKN036,0.00,VWS V14.00,2013-01-12 04:04:00,
2013-01-11 20:09:00,44.4,40.5,30.05,NNW,343,0.0,0.0,86,0.00,,BKN036,0.00,VWS V14.00,2013-01-12 04:09:00,
2013-01-11 20:14:00,44.7,41.1,30.05,NNW,343,0.0,0.0,87,0.00,,BKN036,0.00,VWS V14.00,2013-01-12 04:14:00,
2013-01-11 20:19:00,44.3,41.0,30.06,NNW,343,0.0,0.0,88,0.00,,BKN036,0.00,VWS V14.00,2013-01-12 04:19:00,
2013-01-11 20:24:00,44.5,41.2,30.06,NNW,343,0.0,0.0,88,0.00,,BKN036,0.00,VWS V14.00,2013-01-12 04:24:00,
2013-01-11 20:29:00,44.5,41.2,30.07,NNW,343,0.0,0.0,88,0.00,,BKN036,0.00,VWS V14.00,2013-01-12 04:29:00,
2013-01-11 20:30:00,41.9,39.8,30.06,North,0,0.0,0.0,92,0.04,,CLR,0.08,VWS V14.00,2013-01-12 04:30:00,
2013-01-11 20:34:00,44.6,41.3,30.07,NNW,343,0.0,0.0,88,0.00,,BKN036,0.00,VWS V14.00,2013-01-12 04:34:00,
2013-01-11 20:39:00,44.6,41.3,30.08,NNW,343,0.0,1.0,88,0.00,,BKN036,0.00,VWS V14.00,2013-01-12 04:39:00,
2013-01-11 20:44:00,44.1,41.1,30.08,North,7,0.0,1.0,89,0.04,,BKN036,0.04,VWS V14.00,2013-01-12 04:44:00,
2013-01-11 20:49:00,43.3,40.6,30.08,North,5,0.0,1.0,90,0.04,,OVC095,0.05,VWS V14.00,2013-01-12 04:49:00,
2013-01-11 20:54:00,43.5,40.8,30.08,NNE,32,0.0,1.0,90,0.05,,OVC095,0.06,VWS V14.00,2013-01-12 04:54:00,
2013-01-11 20:59:00,43.0,40.6,30.08,North,0,0.0,1.0,91,0.06,,OVC095,0.07,VWS V14.00,2013-01-12 04:59:00,
2013-01-11 21:00:00,42.7,40.0,30.08,North,0,0.0,1.0,90,0.06,,OVC095,0.07,VWS V14.00,2013-01-12 05:00:00,
2013-01-11 21:01:00,42.6,40.2,30.08,North,0,0.0,0.0,91,0.06,,OVC095,0.07,VWS V14.00,2013-01-12 05:01:00,
2013-01-11 21:03:00,42.8,40.6,30.08,North,0,0.0,0.0,92,0.05,,OVC095,0.07,VWS V14.00,2013-01-12 05:03:00,
2013-01-11 21:08:00,42.7,40.3,30.07,North,0,0.0,0.0,91,0.06,,OVC095,0.08,VWS V14.00,2013-01-12 05:08:00,
2013-01-11 21:13:00,42.6,40.2,30.07,North,0,0.0,0.0,91,0.05,,OVC095,0.08,VWS V14.00,2013-01-12 05:13:00,
2013-01-11 21:18:00,42.3,40.2,30.06,North,0,0.0,0.0,92,0.05,,OVC095,0.08,VWS V14.00,2013-01-12 05:18:00,
2013-01-11 21:23:00,42.2,40.0,30.07,North,0,0.0,0.0,92,0.05,,OVC095,0.08,VWS V14.00,2013-01-12 05:23:00,
2013-01-11 21:28:00,42.3,40.4,30.07,North,0,0.0,0.0,93,0.04,,OVC095,0.08,VWS V14.00,2013-01-12 05:28:00,
2013-01-11 21:30:00,40.5,38.9,30.08,North,0,0.0,0.0,94,0.01,,CLR,0.08,VWS V14.00,2013-01-12 05:30:00,
2013-01-11 21:33:00,42.2,40.0,30.07,North,0,0.0,0.0,92,0.04,,OVC095,0.08,VWS V14.00,2013-01-12 05:33:00,
2013-01-11 21:38:00,42.1,40.2,30.07,North,0,0.0,0.0,93,0.04,,OVC095,0.08,VWS V14.00,2013-01-12 05:38:00,
2013-01-11 21:43:00,41.7,39.8,30.07,North,0,0.0,0.0,93,0.03,,OVC095,0.08,VWS V14.00,2013-01-12 05:43:00,
2013-01-11 21:48:00,41.3,39.4,30.07,North,0,0.0,0.0,93,0.03,,-RA,0.08,VWS V14.00,2013-01-12 05:48:00,
2013-01-11 21:53:00,41.6,40.0,30.07,North,0,0.0,0.0,94,0.03,,-RA,0.08,VWS V14.00,2013-01-12 05:53:00,
2013-01-11 21:58:00,41.2,39.3,30.07,North,0,0.0,0.0,93,0.03,,-RA,0.08,VWS V14.00,2013-01-12 05:58:00,
2013-01-11 22:00:00,39.4,37.8,30.09,North,0,0.0,0.0,94,0.01,,CLR,0.08,VWS V14.00,2013-01-12 06:00:00,
2013-01-11 22:03:00,41.2,39.3,30.07,North,0,0.0,0.0,93,0.02,,-RA,0.08,VWS V14.00,2013-01-12 06:03:00,
2013-01-11 22:08:00,40.7,38.8,30.08,North,0,0.0,0.0,93,0.02,,-RA,0.08,VWS V14.00,2013-01-12 06:08:00,
2013-01-11 22:13:00,40.6,38.7,30.08,North,0,0.0,0.0,93,0.02,,-RA,0.08,VWS V14.00,2013-01-12 06:13:00,
2013-01-11 22:18:00,40.6,39.0,30.08,North,0,0.0,0.0,94,0.02,,-RA,0.08,VWS V14.00,2013-01-12 06:18:00,
2013-01-11 22:23:00,40.3,38.7,30.08,North,0,0.0,0.0,94,0.02,,-RA,0.08,VWS V14.00,2013-01-12 06:23:00,
2013-01-11 22:28:00,40.0,38.4,30.07,North,0,0.0,0.0,94,0.02,,-RA,0.08,VWS V14.00,2013-01-12 06:28:00,
2013-01-11 22:30:00,38.6,37.0,30.10,North,0,0.0,0.0,94,0.00,,CLR,0.08,VWS V14.00,2013-01-12 06:30:00,
2013-01-11 22:33:00,40.1,38.5,30.08,North,0,0.0,0.0,94,0.01,,-RA,0.08,VWS V14.00,2013-01-12 06:33:00,
2013-01-11 22:38:00,40.2,38.6,30.08,North,0,0.0,0.0,94,0.01,,-RA,0.08,VWS V14.00,2013-01-12 06:38:00,
2013-01-11 22:43:00,40.0,38.4,30.08,North,0,0.0,0.0,94,0.01,,-RA,0.08,VWS V14.00,2013-01-12 06:43:00,
2013-01-11 22:48:00,39.6,38.0,30.09,North,0,0.0,0.0,94,0.01,,SCT090,0.08,VWS V14.00,2013-01-12 06:48:00,
2013-01-11 22:53:00,40.1,38.5,30.08,North,0,0.0,0.0,94,0.01,,SCT090,0.08,VWS V14.00,2013-01-12 06:53:00,
2013-01-11 22:58:00,39.5,37.9,30.09,North,0,0.0,0.0,94,0.01,,SCT090,0.08,VWS V14.00,2013-01-12 06:58:00,
2013-01-11 23:00:00,37.9,36.1,30.09,North,0,0.0,0.0,93,0.00,,CLR,0.00,VWS V14.00,2013-01-12 07:00:00,
2013-01-11 23:03:00,39.6,37.8,30.09,North,0,0.0,0.0,93,0.01,,SCT090,0.08,VWS V14.00,2013-01-12 07:03:00,
2013-01-11 23:08:00,39.4,37.8,30.09,North,0,0.0,0.0,94,0.01,,SCT090,0.08,VWS V14.00,2013-01-12 07:08:00,
2013-01-11 23:13:00,39.1,37.5,30.08,North,0,0.0,0.0,94,0.01,,SCT090,0.08,VWS V14.00,2013-01-12 07:13:00,
2013-01-11 23:18:00,39.0,37.4,30.09,North,0,0.0,0.0,94,0.01,,SCT090,0.08,VWS V14.00,2013-01-12 07:18:00,
2013-01-11 23:23:00,38.9,37.3,30.09,North,0,0.0,0.0,94,0.01,,SCT090,0.08,VWS V14.00,2013-01-12 07:23:00,
2013-01-11 23:28:00,38.6,37.0,30.09,North,0,0.0,0.0,94,0.01,,SCT090,0.08,VWS V14.00,2013-01-12 07:28:00,
2013-01-11 23:30:00,37.0,35.4,30.10,North,0,0.0,0.0,94,0.00,,CLR,0.00,VWS V14.00,2013-01-12 07:30:00,
2013-01-11 23:33:00,38.8,37.2,30.09,North,0,0.0,0.0,94,0.01,,SCT090,0.08,VWS V14.00,2013-01-12 07:33:00,
2013-01-11 23:38:00,38.7,36.8,30.10,North,0,0.0,0.0,93,0.00,,SCT090,0.08,VWS V14.00,2013-01-12 07:38:00,
2013-01-11 23:43:00,38.4,36.6,30.09,North,0,0.0,0.0,93,0.00,,SCT090,0.08,VWS V14.00,2013-01-12 07:43:00,
2013-01-11 23:48:00,38.0,36.4,30.09,North,0,0.0,0.0,94,0.00,,CLR,0.08,VWS V14.00,2013-01-12 07:48:00,
2013-01-11 23:53:00,38.2,36.6,30.10,North,0,0.0,0.0,94,0.00,,CLR,0.08,VWS V14.00,2013-01-12 07:53:00,
2013-01-11 23:58:00,38.1,36.3,30.09,North,0,0.0,0.0,93,0.00,,CLR,0.08,VWS V14.00,2013-01-12 07:58:00,